sensor_id;sensor_type;location;lat;lon;timestamp;temperature;humidity
13713;DHT22;6928;50.546;7.120;2022-12-18T00:00:58;-8.67;83.82
13713;DHT22;6928;50.546;7.120;2022-12-18T00:03:25;-8.62;83.67
13713;DHT22;6928;50.546;7.120;2022-12-18T00:05:54;-8.73;83.40
13713;DHT22;6928;50.546;7.120;2022-12-18T00:08:20;-8.49;83.26
13713;DHT22;6928;50.546;7.120;2022-12-18T00:10:47;-8.62;83.32
13713;DHT22;6928;50.546;7.120;2022-12-18T00:13:14;-8.55;83.54
13713;DHT22;6928;50.546;7.120;2022-12-18T00:15:41;-8.48;83.26
13713;DHT22;6928;50.546;7.120;2022-12-18T00:18:08;-8.59;82.50
13713;DHT22;6928;50.546;7.120;2022-12-18T00:20:39;-8.52;82.76
13713;DHT22;6928;50.546;7.120;2022-12-18T00:23:07;-8.59;83.20
13713;DHT22;6928;50.546;7.120;2022-12-18T00:25:34;-8.61;82.91
13713;DHT22;6928;50.546;7.120;2022-12-18T00:28:02;-8.79;83.40
13713;DHT22;6928;50.546;7.120;2022-12-18T00:30:29;-8.80;83.49
13713;DHT22;6928;50.546;7.120;2022-12-18T00:32:56;-8.88;83.36
13713;DHT22;6928;50.546;7.120;2022-12-18T00:35:23;-8.88;83.35
13713;DHT22;6928;50.546;7.120;2022-12-18T00:37:50;-8.89;83.77
13713;DHT22;6928;50.546;7.120;2022-12-18T00:40:18;-8.99;84.26
13713;DHT22;6928;50.546;7.120;2022-12-18T00:42:45;-8.90;84.14
13713;DHT22;6928;50.546;7.120;2022-12-18T00:45:23;-8.89;85.08
13713;DHT22;6928;50.546;7.120;2022-12-18T00:47:50;-8.83;84.95
13713;DHT22;6928;50.546;7.120;2022-12-18T00:50:18;-8.75;84.37
13713;DHT22;6928;50.546;7.120;2022-12-18T00:52:45;-8.65;84.13
13713;DHT22;6928;50.546;7.120;2022-12-18T00:55:12;-8.67;84.03
13713;DHT22;6928;50.546;7.120;2022-12-18T00:57:40;-8.69;84.52
13713;DHT22;6928;50.546;7.120;2022-12-18T01:00:11;-8.62;83.98
13713;DHT22;6928;50.546;7.120;2022-12-18T01:02:38;-8.86;83.73
13713;DHT22;6928;50.546;7.120;2022-12-18T01:05:06;-8.92;83.70
13713;DHT22;6928;50.546;7.120;2022-12-18T01:07:33;-9.11;83.93
13713;DHT22;6928;50.546;7.120;2022-12-18T01:10:00;-9.00;84.20
13713;DHT22;6928;50.546;7.120;2022-12-18T01:12:27;-8.89;84.51
13713;DHT22;6928;50.546;7.120;2022-12-18T01:14:55;-9.01;84.30
13713;DHT22;6928;50.546;7.120;2022-12-18T01:17:22;-9.03;84.33
13713;DHT22;6928;50.546;7.120;2022-12-18T01:19:49;-9.00;84.91
13713;DHT22;6928;50.546;7.120;2022-12-18T01:22:16;-9.38;85.37
13713;DHT22;6928;50.546;7.120;2022-12-18T01:24:43;-8.90;85.00
13713;DHT22;6928;50.546;7.120;2022-12-18T01:27:09;-9.24;84.28
13713;DHT22;6928;50.546;7.120;2022-12-18T01:29:36;-9.00;84.12
13713;DHT22;6928;50.546;7.120;2022-12-18T01:32:04;-9.30;84.71
13713;DHT22;6928;50.546;7.120;2022-12-18T01:34:31;-9.24;84.62
13713;DHT22;6928;50.546;7.120;2022-12-18T01:37:02;-9.03;84.41
13713;DHT22;6928;50.546;7.120;2022-12-18T01:39:29;-9.01;84.22
13713;DHT22;6928;50.546;7.120;2022-12-18T01:41:57;-9.00;83.92
13713;DHT22;6928;50.546;7.120;2022-12-18T01:44:56;-8.90;84.11
13713;DHT22;6928;50.546;7.120;2022-12-18T01:47:29;-9.23;84.24
13713;DHT22;6928;50.546;7.120;2022-12-18T01:49:59;-9.00;85.01
13713;DHT22;6928;50.546;7.120;2022-12-18T01:52:29;-9.26;86.11
13713;DHT22;6928;50.546;7.120;2022-12-18T01:54:57;-9.15;85.59
13713;DHT22;6928;50.546;7.120;2022-12-18T01:57:25;-8.85;85.12
13713;DHT22;6928;50.546;7.120;2022-12-18T01:59:55;-9.16;85.49
13713;DHT22;6928;50.546;7.120;2022-12-18T02:02:26;-9.16;85.89
13713;DHT22;6928;50.546;7.120;2022-12-18T02:04:54;-8.97;85.45
13713;DHT22;6928;50.546;7.120;2022-12-18T02:07:30;-9.27;85.57
13713;DHT22;6928;50.546;7.120;2022-12-18T02:10:02;-9.04;85.44
13713;DHT22;6928;50.546;7.120;2022-12-18T02:12:41;-9.07;84.81
13713;DHT22;6928;50.546;7.120;2022-12-18T02:15:14;-9.01;84.70
13713;DHT22;6928;50.546;7.120;2022-12-18T02:17:50;-8.95;84.24
13713;DHT22;6928;50.546;7.120;2022-12-18T02:20:24;-9.10;84.07
13713;DHT22;6928;50.546;7.120;2022-12-18T02:23:06;-9.40;84.08
13713;DHT22;6928;50.546;7.120;2022-12-18T02:28:37;-9.59;85.82
13713;DHT22;6928;50.546;7.120;2022-12-18T02:31:09;-9.38;86.13
13713;DHT22;6928;50.546;7.120;2022-12-18T02:33:38;-9.28;85.78
13713;DHT22;6928;50.546;7.120;2022-12-18T02:36:06;-9.11;85.07
13713;DHT22;6928;50.546;7.120;2022-12-18T02:38:34;-9.15;84.60
13713;DHT22;6928;50.546;7.120;2022-12-18T02:41:04;-9.30;84.84
13713;DHT22;6928;50.546;7.120;2022-12-18T02:43:31;-9.07;84.64
13713;DHT22;6928;50.546;7.120;2022-12-18T02:46:00;-9.01;84.06
13713;DHT22;6928;50.546;7.120;2022-12-18T02:48:47;-9.07;84.18
13713;DHT22;6928;50.546;7.120;2022-12-18T02:51:18;-9.23;84.34
13713;DHT22;6928;50.546;7.120;2022-12-18T02:53:53;-9.30;84.51
13713;DHT22;6928;50.546;7.120;2022-12-18T02:56:27;-9.22;84.52
13713;DHT22;6928;50.546;7.120;2022-12-18T02:58:59;-9.30;84.78
13713;DHT22;6928;50.546;7.120;2022-12-18T03:01:33;-9.28;85.16
13713;DHT22;6928;50.546;7.120;2022-12-18T03:04:06;-9.31;84.84
13713;DHT22;6928;50.546;7.120;2022-12-18T03:06:38;-9.16;84.90
13713;DHT22;6928;50.546;7.120;2022-12-18T03:09:10;-9.36;84.46
13713;DHT22;6928;50.546;7.120;2022-12-18T03:11:42;-9.37;84.69
13713;DHT22;6928;50.546;7.120;2022-12-18T03:14:38;-9.31;85.26
13713;DHT22;6928;50.546;7.120;2022-12-18T03:17:14;-9.34;84.64
13713;DHT22;6928;50.546;7.120;2022-12-18T03:19:43;-9.16;84.09
13713;DHT22;6928;50.546;7.120;2022-12-18T03:22:13;-9.28;84.68
13713;DHT22;6928;50.546;7.120;2022-12-18T03:24:42;-9.30;84.81
13713;DHT22;6928;50.546;7.120;2022-12-18T03:27:13;-9.10;84.73
13713;DHT22;6928;50.546;7.120;2022-12-18T03:29:43;-9.04;84.10
13713;DHT22;6928;50.546;7.120;2022-12-18T03:32:17;-9.27;83.56
13713;DHT22;6928;50.546;7.120;2022-12-18T03:34:49;-9.16;84.03
13713;DHT22;6928;50.546;7.120;2022-12-18T03:37:17;-9.16;83.93
13713;DHT22;6928;50.546;7.120;2022-12-18T03:39:44;-9.52;84.04
13713;DHT22;6928;50.546;7.120;2022-12-18T03:42:16;-9.46;85.79
13713;DHT22;6928;50.546;7.120;2022-12-18T03:44:53;-9.48;84.75
13713;DHT22;6928;50.546;7.120;2022-12-18T03:47:27;-9.37;84.28
13713;DHT22;6928;50.546;7.120;2022-12-18T03:49:59;-9.67;84.86
13713;DHT22;6928;50.546;7.120;2022-12-18T03:52:34;-9.26;84.57
13713;DHT22;6928;50.546;7.120;2022-12-18T03:55:04;-9.50;84.69
13713;DHT22;6928;50.546;7.120;2022-12-18T03:57:33;-9.34;84.68
13713;DHT22;6928;50.546;7.120;2022-12-18T04:00:07;-9.43;84.52
13713;DHT22;6928;50.546;7.120;2022-12-18T04:02:35;-9.40;85.05
13713;DHT22;6928;50.546;7.120;2022-12-18T04:05:05;-9.24;84.99
13713;DHT22;6928;50.546;7.120;2022-12-18T04:07:33;-9.40;84.27
13713;DHT22;6928;50.546;7.120;2022-12-18T04:10:02;-9.37;85.22
13713;DHT22;6928;50.546;7.120;2022-12-18T04:12:30;-9.48;84.84
13713;DHT22;6928;50.546;7.120;2022-12-18T04:14:58;-9.38;85.25
13713;DHT22;6928;50.546;7.120;2022-12-18T04:17:25;-9.43;84.58
13713;DHT22;6928;50.546;7.120;2022-12-18T04:19:52;-9.33;84.97
13713;DHT22;6928;50.546;7.120;2022-12-18T04:22:18;-9.28;84.69
13713;DHT22;6928;50.546;7.120;2022-12-18T04:24:45;-9.33;84.58
13713;DHT22;6928;50.546;7.120;2022-12-18T04:27:12;-9.48;84.32
13713;DHT22;6928;50.546;7.120;2022-12-18T04:29:39;-9.43;85.44
13713;DHT22;6928;50.546;7.120;2022-12-18T04:32:08;-9.54;85.29
13713;DHT22;6928;50.546;7.120;2022-12-18T04:34:35;-9.43;85.68
13713;DHT22;6928;50.546;7.120;2022-12-18T04:37:02;-9.40;85.67
13713;DHT22;6928;50.546;7.120;2022-12-18T04:39:29;-9.48;85.26
13713;DHT22;6928;50.546;7.120;2022-12-18T04:41:56;-9.54;85.18
13713;DHT22;6928;50.546;7.120;2022-12-18T04:44:23;-9.47;85.36
13713;DHT22;6928;50.546;7.120;2022-12-18T04:46:50;-9.52;85.71
13713;DHT22;6928;50.546;7.120;2022-12-18T04:49:18;-9.54;86.01
13713;DHT22;6928;50.546;7.120;2022-12-18T04:51:45;-9.41;85.92
13713;DHT22;6928;50.546;7.120;2022-12-18T04:54:11;-9.58;86.13
13713;DHT22;6928;50.546;7.120;2022-12-18T04:56:38;-9.44;85.91
13713;DHT22;6928;50.546;7.120;2022-12-18T04:59:05;-9.50;86.15
13713;DHT22;6928;50.546;7.120;2022-12-18T05:01:32;-9.67;86.52
13713;DHT22;6928;50.546;7.120;2022-12-18T05:03:59;-9.44;86.44
13713;DHT22;6928;50.546;7.120;2022-12-18T05:06:27;-9.38;85.91
13713;DHT22;6928;50.546;7.120;2022-12-18T05:08:54;-9.47;85.82
13713;DHT22;6928;50.546;7.120;2022-12-18T05:11:20;-9.55;85.81
13713;DHT22;6928;50.546;7.120;2022-12-18T05:13:47;-9.33;85.85
13713;DHT22;6928;50.546;7.120;2022-12-18T05:16:14;-9.33;86.02
13713;DHT22;6928;50.546;7.120;2022-12-18T05:18:41;-9.43;85.94
13713;DHT22;6928;50.546;7.120;2022-12-18T05:21:08;-9.36;85.98
13713;DHT22;6928;50.546;7.120;2022-12-18T05:23:37;-9.37;86.19
13713;DHT22;6928;50.546;7.120;2022-12-18T05:26:05;-9.37;85.95
13713;DHT22;6928;50.546;7.120;2022-12-18T05:28:35;-9.33;85.94
13713;DHT22;6928;50.546;7.120;2022-12-18T05:31:04;-9.23;86.15
13713;DHT22;6928;50.546;7.120;2022-12-18T05:33:33;-9.10;86.30
13713;DHT22;6928;50.546;7.120;2022-12-18T05:36:05;-9.26;86.97
13713;DHT22;6928;50.546;7.120;2022-12-18T05:38:34;-8.71;88.21
13713;DHT22;6928;50.546;7.120;2022-12-18T05:41:04;-8.55;88.42
13713;DHT22;6928;50.546;7.120;2022-12-18T05:43:31;-8.02;89.08
13713;DHT22;6928;50.546;7.120;2022-12-18T05:46:01;-7.96;88.96
13713;DHT22;6928;50.546;7.120;2022-12-18T05:48:29;-7.68;89.54
13713;DHT22;6928;50.546;7.120;2022-12-18T05:50:56;-7.95;88.91
13713;DHT22;6928;50.546;7.120;2022-12-18T05:53:29;-8.02;88.50
13713;DHT22;6928;50.546;7.120;2022-12-18T05:56:00;-7.41;89.35
13713;DHT22;6928;50.546;7.120;2022-12-18T05:58:30;-7.70;89.03
13713;DHT22;6928;50.546;7.120;2022-12-18T06:00:58;-7.75;89.04
13713;DHT22;6928;50.546;7.120;2022-12-18T06:03:24;-7.92;88.80
13713;DHT22;6928;50.546;7.120;2022-12-18T06:05:51;-8.17;88.48
13713;DHT22;6928;50.546;7.120;2022-12-18T06:08:18;-8.59;87.24
13713;DHT22;6928;50.546;7.120;2022-12-18T06:10:51;-8.47;88.32
13713;DHT22;6928;50.546;7.120;2022-12-18T06:13:20;-8.59;87.19
13713;DHT22;6928;50.546;7.120;2022-12-18T06:15:48;-8.92;86.83
13713;DHT22;6928;50.546;7.120;2022-12-18T06:18:15;-8.79;86.88
13713;DHT22;6928;50.546;7.120;2022-12-18T06:20:42;-8.97;86.81
13713;DHT22;6928;50.546;7.120;2022-12-18T06:23:09;-8.96;86.68
13713;DHT22;6928;50.546;7.120;2022-12-18T06:25:38;-8.80;86.60
13713;DHT22;6928;50.546;7.120;2022-12-18T06:28:06;-8.95;86.45
13713;DHT22;6928;50.546;7.120;2022-12-18T06:30:33;-8.78;86.50
13713;DHT22;6928;50.546;7.120;2022-12-18T06:33:01;-8.90;86.27
13713;DHT22;6928;50.546;7.120;2022-12-18T06:35:28;-8.80;86.54
13713;DHT22;6928;50.546;7.120;2022-12-18T06:37:55;-8.80;86.20
13713;DHT22;6928;50.546;7.120;2022-12-18T06:40:21;-9.07;86.22
13713;DHT22;6928;50.546;7.120;2022-12-18T06:42:48;-9.06;86.35
13713;DHT22;6928;50.546;7.120;2022-12-18T06:45:15;-8.99;86.28
13713;DHT22;6928;50.546;7.120;2022-12-18T06:47:42;-9.04;86.30
13713;DHT22;6928;50.546;7.120;2022-12-18T06:50:12;-8.97;86.91
13713;DHT22;6928;50.546;7.120;2022-12-18T06:52:39;-8.36;87.41
13713;DHT22;6928;50.546;7.120;2022-12-18T06:55:08;-8.69;86.91
13713;DHT22;6928;50.546;7.120;2022-12-18T06:57:35;-8.88;87.27
13713;DHT22;6928;50.546;7.120;2022-12-18T07:00:05;-9.11;86.97
13713;DHT22;6928;50.546;7.120;2022-12-18T07:02:32;-9.10;86.90
13713;DHT22;6928;50.546;7.120;2022-12-18T07:04:59;-9.03;86.57
13713;DHT22;6928;50.546;7.120;2022-12-18T07:07:28;-9.03;86.67
13713;DHT22;6928;50.546;7.120;2022-12-18T07:09:54;-9.09;86.77
13713;DHT22;6928;50.546;7.120;2022-12-18T07:12:21;-9.13;87.17
13713;DHT22;6928;50.546;7.120;2022-12-18T07:14:48;-9.19;86.69
13713;DHT22;6928;50.546;7.120;2022-12-18T07:17:15;-9.00;86.47
13713;DHT22;6928;50.546;7.120;2022-12-18T07:19:42;-9.00;86.63
13713;DHT22;6928;50.546;7.120;2022-12-18T07:22:09;-9.06;86.60
13713;DHT22;6928;50.546;7.120;2022-12-18T07:24:40;-9.03;86.51
13713;DHT22;6928;50.546;7.120;2022-12-18T07:27:07;-9.07;86.77
13713;DHT22;6928;50.546;7.120;2022-12-18T07:29:34;-8.93;86.72
13713;DHT22;6928;50.546;7.120;2022-12-18T07:32:01;-8.92;86.41
13713;DHT22;6928;50.546;7.120;2022-12-18T07:34:28;-8.92;87.16
13713;DHT22;6928;50.546;7.120;2022-12-18T07:36:54;-9.06;86.84
13713;DHT22;6928;50.546;7.120;2022-12-18T07:39:21;-8.95;87.02
13713;DHT22;6928;50.546;7.120;2022-12-18T07:41:49;-8.79;87.66
13713;DHT22;6928;50.546;7.120;2022-12-18T07:44:30;-8.16;88.93
13713;DHT22;6928;50.546;7.120;2022-12-18T07:46:57;-7.06;89.92
13713;DHT22;6928;50.546;7.120;2022-12-18T07:49:24;-6.76;89.11
13713;DHT22;6928;50.546;7.120;2022-12-18T07:51:50;-6.68;89.00
13713;DHT22;6928;50.546;7.120;2022-12-18T07:54:17;-6.59;88.65
13713;DHT22;6928;50.546;7.120;2022-12-18T07:56:44;-6.38;88.68
13713;DHT22;6928;50.546;7.120;2022-12-18T07:59:12;-6.38;88.62
13713;DHT22;6928;50.546;7.120;2022-12-18T08:01:39;-6.31;88.54
13713;DHT22;6928;50.546;7.120;2022-12-18T08:04:06;-6.27;88.28
13713;DHT22;6928;50.546;7.120;2022-12-18T08:06:33;-6.13;88.26
13713;DHT22;6928;50.546;7.120;2022-12-18T08:09:00;-6.17;88.27
13713;DHT22;6928;50.546;7.120;2022-12-18T08:11:28;-6.06;88.02
13713;DHT22;6928;50.546;7.120;2022-12-18T08:13:55;-6.00;87.81
13713;DHT22;6928;50.546;7.120;2022-12-18T08:16:24;-5.94;87.76
13713;DHT22;6928;50.546;7.120;2022-12-18T08:18:52;-5.98;87.68
13713;DHT22;6928;50.546;7.120;2022-12-18T08:21:22;-5.90;87.90
13713;DHT22;6928;50.546;7.120;2022-12-18T08:23:49;-5.85;87.63
13713;DHT22;6928;50.546;7.120;2022-12-18T08:26:17;-5.85;87.62
13713;DHT22;6928;50.546;7.120;2022-12-18T08:28:44;-5.72;87.55
13713;DHT22;6928;50.546;7.120;2022-12-18T08:31:11;-5.79;87.43
13713;DHT22;6928;50.546;7.120;2022-12-18T08:33:40;-5.65;87.44
13713;DHT22;6928;50.546;7.120;2022-12-18T08:36:09;-5.52;87.24
13713;DHT22;6928;50.546;7.120;2022-12-18T08:38:36;-5.46;87.11
13713;DHT22;6928;50.546;7.120;2022-12-18T08:41:05;-5.45;87.08
13713;DHT22;6928;50.546;7.120;2022-12-18T08:43:33;-5.39;86.97
13713;DHT22;6928;50.546;7.120;2022-12-18T08:46:17;-5.31;86.92
13713;DHT22;6928;50.546;7.120;2022-12-18T08:48:45;-5.30;86.75
13713;DHT22;6928;50.546;7.120;2022-12-18T08:51:12;-5.23;86.84
13713;DHT22;6928;50.546;7.120;2022-12-18T08:53:39;-5.18;86.71
13713;DHT22;6928;50.546;7.120;2022-12-18T08:56:07;-5.18;86.50
13713;DHT22;6928;50.546;7.120;2022-12-18T08:58:34;-5.08;86.37
13713;DHT22;6928;50.546;7.120;2022-12-18T09:01:02;-5.04;86.31
13713;DHT22;6928;50.546;7.120;2022-12-18T09:03:30;-4.97;86.27
13713;DHT22;6928;50.546;7.120;2022-12-18T09:05:58;-5.01;86.24
13713;DHT22;6928;50.546;7.120;2022-12-18T09:08:26;-4.93;86.19
13713;DHT22;6928;50.546;7.120;2022-12-18T09:10:53;-4.94;86.11
13713;DHT22;6928;50.546;7.120;2022-12-18T09:13:20;-4.94;85.99
13713;DHT22;6928;50.546;7.120;2022-12-18T09:15:50;-4.83;86.19
13713;DHT22;6928;50.546;7.120;2022-12-18T09:18:18;-4.80;86.02
13713;DHT22;6928;50.546;7.120;2022-12-18T09:20:46;-4.75;85.87
13713;DHT22;6928;50.546;7.120;2022-12-18T09:23:14;-4.69;85.65
13713;DHT22;6928;50.546;7.120;2022-12-18T09:25:42;-4.65;85.62
13713;DHT22;6928;50.546;7.120;2022-12-18T09:28:15;-4.63;85.51
13713;DHT22;6928;50.546;7.120;2022-12-18T09:30:45;-4.62;85.58
13713;DHT22;6928;50.546;7.120;2022-12-18T09:33:12;-4.49;85.33
13713;DHT22;6928;50.546;7.120;2022-12-18T09:35:40;-4.36;85.23
13713;DHT22;6928;50.546;7.120;2022-12-18T09:38:08;-4.32;84.92
13713;DHT22;6928;50.546;7.120;2022-12-18T09:40:44;-4.21;84.90
13713;DHT22;6928;50.546;7.120;2022-12-18T09:43:17;-4.11;84.81
13713;DHT22;6928;50.546;7.120;2022-12-18T09:45:49;-4.11;84.68
13713;DHT22;6928;50.546;7.120;2022-12-18T09:48:23;-4.04;84.51
13713;DHT22;6928;50.546;7.120;2022-12-18T09:50:57;-3.97;84.50
13713;DHT22;6928;50.546;7.120;2022-12-18T09:53:30;-3.96;84.40
13713;DHT22;6928;50.546;7.120;2022-12-18T09:56:00;-3.87;84.40
13713;DHT22;6928;50.546;7.120;2022-12-18T09:58:32;-3.89;84.37
13713;DHT22;6928;50.546;7.120;2022-12-18T10:01:01;-3.91;84.08
13713;DHT22;6928;50.546;7.120;2022-12-18T10:03:28;-3.82;84.29
13713;DHT22;6928;50.546;7.120;2022-12-18T10:06:05;-3.79;83.92
13713;DHT22;6928;50.546;7.120;2022-12-18T10:08:40;-3.72;83.98
13713;DHT22;6928;50.546;7.120;2022-12-18T10:11:35;-3.67;83.95
13713;DHT22;6928;50.546;7.120;2022-12-18T10:14:19;-3.57;83.73
13713;DHT22;6928;50.546;7.120;2022-12-18T10:16:59;-3.53;83.73
13713;DHT22;6928;50.546;7.120;2022-12-18T10:19:43;-3.50;83.40
13713;DHT22;6928;50.546;7.120;2022-12-18T10:22:50;-3.50;83.46
13713;DHT22;6928;50.546;7.120;2022-12-18T10:25:23;-3.43;83.38
13713;DHT22;6928;50.546;7.120;2022-12-18T10:27:57;-3.38;83.27
13713;DHT22;6928;50.546;7.120;2022-12-18T10:30:26;-3.32;82.86
13713;DHT22;6928;50.546;7.120;2022-12-18T10:32:53;-3.21;82.88
13713;DHT22;6928;50.546;7.120;2022-12-18T10:35:24;-3.38;82.81
13713;DHT22;6928;50.546;7.120;2022-12-18T10:38:20;-3.24;82.96
13713;DHT22;6928;50.546;7.120;2022-12-18T10:40:53;-3.18;82.62
13713;DHT22;6928;50.546;7.120;2022-12-18T10:43:25;-3.24;82.59
13713;DHT22;6928;50.546;7.120;2022-12-18T10:48:54;-3.21;82.63
13713;DHT22;6928;50.546;7.120;2022-12-18T10:51:25;-3.19;82.48
13713;DHT22;6928;50.546;7.120;2022-12-18T10:53:56;-3.19;82.48
13713;DHT22;6928;50.546;7.120;2022-12-18T10:56:26;-3.22;82.56
13713;DHT22;6928;50.546;7.120;2022-12-18T10:59:01;-3.21;82.47
13713;DHT22;6928;50.546;7.120;2022-12-18T11:01:45;-3.19;82.41
13713;DHT22;6928;50.546;7.120;2022-12-18T11:04:19;-3.22;82.52
13713;DHT22;6928;50.546;7.120;2022-12-18T11:06:55;-3.19;82.44
13713;DHT22;6928;50.546;7.120;2022-12-18T11:09:24;-3.19;82.43
13713;DHT22;6928;50.546;7.120;2022-12-18T11:11:54;-3.14;82.48
13713;DHT22;6928;50.546;7.120;2022-12-18T11:14:25;-3.14;82.45
13713;DHT22;6928;50.546;7.120;2022-12-18T11:16:53;-3.17;82.49
13713;DHT22;6928;50.546;7.120;2022-12-18T11:19:33;-3.22;82.51
13713;DHT22;6928;50.546;7.120;2022-12-18T11:22:01;-3.17;82.54
13713;DHT22;6928;50.546;7.120;2022-12-18T11:24:31;-3.18;82.36
13713;DHT22;6928;50.546;7.120;2022-12-18T11:27:02;-3.17;82.37
13713;DHT22;6928;50.546;7.120;2022-12-18T11:29:37;-3.08;82.40
13713;DHT22;6928;50.546;7.120;2022-12-18T11:32:27;-3.07;82.33
13713;DHT22;6928;50.546;7.120;2022-12-18T11:35:03;-3.12;82.25
13713;DHT22;6928;50.546;7.120;2022-12-18T11:37:31;-3.08;82.36
13713;DHT22;6928;50.546;7.120;2022-12-18T11:40:06;-3.01;82.12
13713;DHT22;6928;50.546;7.120;2022-12-18T11:42:43;-3.14;82.07
13713;DHT22;6928;50.546;7.120;2022-12-18T11:45:30;-3.01;82.27
13713;DHT22;6928;50.546;7.120;2022-12-18T11:48:04;-3.07;82.08
13713;DHT22;6928;50.546;7.120;2022-12-18T11:50:43;-3.09;82.26
13713;DHT22;6928;50.546;7.120;2022-12-18T11:53:13;-3.05;82.36
13713;DHT22;6928;50.546;7.120;2022-12-18T11:55:56;-3.04;82.36
13713;DHT22;6928;50.546;7.120;2022-12-18T11:58:46;-2.97;82.24
13713;DHT22;6928;50.546;7.120;2022-12-18T12:01:30;-3.03;82.24
13713;DHT22;6928;50.546;7.120;2022-12-18T12:04:21;-3.00;82.19
13713;DHT22;6928;50.546;7.120;2022-12-18T12:07:03;-3.00;82.25
13713;DHT22;6928;50.546;7.120;2022-12-18T12:09:37;-2.90;82.37
13713;DHT22;6928;50.546;7.120;2022-12-18T12:12:24;-2.91;82.33
13713;DHT22;6928;50.546;7.120;2022-12-18T12:15:02;-2.96;82.15
13713;DHT22;6928;50.546;7.120;2022-12-18T12:17:40;-2.93;82.26
13713;DHT22;6928;50.546;7.120;2022-12-18T12:20:16;-2.93;82.40
13713;DHT22;6928;50.546;7.120;2022-12-18T12:22:54;-2.97;82.62
13713;DHT22;6928;50.546;7.120;2022-12-18T12:25:35;-2.96;82.44
13713;DHT22;6928;50.546;7.120;2022-12-18T12:28:23;-2.97;82.56
13713;DHT22;6928;50.546;7.120;2022-12-18T12:31:03;-2.93;82.44
13713;DHT22;6928;50.546;7.120;2022-12-18T12:33:42;-2.96;82.64
13713;DHT22;6928;50.546;7.120;2022-12-18T12:36:21;-2.90;82.36
13713;DHT22;6928;50.546;7.120;2022-12-18T12:38:53;-2.94;82.54
13713;DHT22;6928;50.546;7.120;2022-12-18T12:41:24;-2.98;82.80
13713;DHT22;6928;50.546;7.120;2022-12-18T12:44:26;-2.96;82.76
13713;DHT22;6928;50.546;7.120;2022-12-18T12:46:58;-2.94;82.89
13713;DHT22;6928;50.546;7.120;2022-12-18T12:49:30;-2.96;82.82
13713;DHT22;6928;50.546;7.120;2022-12-18T12:52:04;-2.93;82.89
13713;DHT22;6928;50.546;7.120;2022-12-18T12:54:32;-2.90;82.82
13713;DHT22;6928;50.546;7.120;2022-12-18T12:57:04;-2.97;82.90
13713;DHT22;6928;50.546;7.120;2022-12-18T12:59:41;-2.91;82.89
13713;DHT22;6928;50.546;7.120;2022-12-18T13:02:20;-2.93;83.11
13713;DHT22;6928;50.546;7.120;2022-12-18T13:04:54;-2.91;83.21
13713;DHT22;6928;50.546;7.120;2022-12-18T13:07:28;-2.87;83.09
13713;DHT22;6928;50.546;7.120;2022-12-18T13:10:27;-2.90;83.14
13713;DHT22;6928;50.546;7.120;2022-12-18T13:13:00;-2.93;83.10
13713;DHT22;6928;50.546;7.120;2022-12-18T13:15:32;-2.94;83.15
13713;DHT22;6928;50.546;7.120;2022-12-18T13:18:17;-2.93;83.19
13713;DHT22;6928;50.546;7.120;2022-12-18T13:20:48;-2.93;83.19
13713;DHT22;6928;50.546;7.120;2022-12-18T13:23:33;-3.00;83.16
13713;DHT22;6928;50.546;7.120;2022-12-18T13:26:32;-2.98;83.24
13713;DHT22;6928;50.546;7.120;2022-12-18T13:29:00;-3.00;83.29
13713;DHT22;6928;50.546;7.120;2022-12-18T13:31:59;-2.91;83.00
13713;DHT22;6928;50.546;7.120;2022-12-18T13:34:27;-2.94;83.18
13713;DHT22;6928;50.546;7.120;2022-12-18T13:39:45;-3.01;83.01
13713;DHT22;6928;50.546;7.120;2022-12-18T13:42:39;-3.03;83.11
13713;DHT22;6928;50.546;7.120;2022-12-18T13:45:46;-3.07;83.31
13713;DHT22;6928;50.546;7.120;2022-12-18T13:48:18;-3.12;83.46
13713;DHT22;6928;50.546;7.120;2022-12-18T13:50:55;-3.17;83.43
13713;DHT22;6928;50.546;7.120;2022-12-18T13:53:27;-3.14;83.57
13713;DHT22;6928;50.546;7.120;2022-12-18T13:55:56;-3.15;83.36
13713;DHT22;6928;50.546;7.120;2022-12-18T13:58:24;-3.18;83.57
13713;DHT22;6928;50.546;7.120;2022-12-18T14:00:51;-3.18;83.39
13713;DHT22;6928;50.546;7.120;2022-12-18T14:03:22;-3.18;83.48
13713;DHT22;6928;50.546;7.120;2022-12-18T14:06:01;-3.21;83.57
13713;DHT22;6928;50.546;7.120;2022-12-18T14:08:35;-3.18;83.61
13713;DHT22;6928;50.546;7.120;2022-12-18T14:11:05;-3.17;83.41
13713;DHT22;6928;50.546;7.120;2022-12-18T14:13:37;-3.15;83.59
13713;DHT22;6928;50.546;7.120;2022-12-18T14:16:11;-3.17;83.59
13713;DHT22;6928;50.546;7.120;2022-12-18T14:18:45;-3.15;83.50
13713;DHT22;6928;50.546;7.120;2022-12-18T14:21:22;-3.24;83.32
13713;DHT22;6928;50.546;7.120;2022-12-18T14:24:04;-3.22;83.60
13713;DHT22;6928;50.546;7.120;2022-12-18T14:26:32;-3.21;83.48
13713;DHT22;6928;50.546;7.120;2022-12-18T14:29:21;-3.18;83.25
13713;DHT22;6928;50.546;7.120;2022-12-18T14:32:20;-3.12;83.07
13713;DHT22;6928;50.546;7.120;2022-12-18T14:34:50;-3.15;82.96
13713;DHT22;6928;50.546;7.120;2022-12-18T14:37:22;-3.19;83.24
13713;DHT22;6928;50.546;7.120;2022-12-18T14:39:54;-3.15;82.98
13713;DHT22;6928;50.546;7.120;2022-12-18T14:42:22;-3.25;83.15
13713;DHT22;6928;50.546;7.120;2022-12-18T14:45:38;-3.19;83.29
13713;DHT22;6928;50.546;7.120;2022-12-18T14:48:07;-3.22;83.11
13713;DHT22;6928;50.546;7.120;2022-12-18T14:50:35;-3.19;83.09
13713;DHT22;6928;50.546;7.120;2022-12-18T14:53:02;-3.27;83.15
13713;DHT22;6928;50.546;7.120;2022-12-18T14:55:29;-3.27;83.21
13713;DHT22;6928;50.546;7.120;2022-12-18T14:57:57;-3.35;83.29
13713;DHT22;6928;50.546;7.120;2022-12-18T15:00:25;-3.27;83.05
13713;DHT22;6928;50.546;7.120;2022-12-18T15:02:56;-3.25;83.10
13713;DHT22;6928;50.546;7.120;2022-12-18T15:05:27;-3.32;83.02
13713;DHT22;6928;50.546;7.120;2022-12-18T15:07:57;-3.27;83.07
13713;DHT22;6928;50.546;7.120;2022-12-18T15:10:26;-3.24;83.02
13713;DHT22;6928;50.546;7.120;2022-12-18T15:13:09;-3.27;82.88
13713;DHT22;6928;50.546;7.120;2022-12-18T15:15:49;-3.25;83.12
13713;DHT22;6928;50.546;7.120;2022-12-18T15:18:28;-3.27;82.91
13713;DHT22;6928;50.546;7.120;2022-12-18T15:20:59;-3.28;82.98
13713;DHT22;6928;50.546;7.120;2022-12-18T15:23:30;-3.21;83.01
13713;DHT22;6928;50.546;7.120;2022-12-18T15:26:02;-3.27;82.77
13713;DHT22;6928;50.546;7.120;2022-12-18T15:28:34;-3.28;82.83
13713;DHT22;6928;50.546;7.120;2022-12-18T15:31:24;-3.35;83.27
13713;DHT22;6928;50.546;7.120;2022-12-18T15:34:11;-3.27;83.24
13713;DHT22;6928;50.546;7.120;2022-12-18T15:36:39;-3.32;83.13
13713;DHT22;6928;50.546;7.120;2022-12-18T15:39:06;-3.21;83.17
13713;DHT22;6928;50.546;7.120;2022-12-18T15:41:35;-3.17;83.05
13713;DHT22;6928;50.546;7.120;2022-12-18T15:44:21;-3.17;83.10
13713;DHT22;6928;50.546;7.120;2022-12-18T15:46:47;-3.18;83.19
13713;DHT22;6928;50.546;7.120;2022-12-18T15:49:16;-3.14;83.22
13713;DHT22;6928;50.546;7.120;2022-12-18T15:51:43;-3.17;83.07
13713;DHT22;6928;50.546;7.120;2022-12-18T15:54:13;-3.14;83.27
13713;DHT22;6928;50.546;7.120;2022-12-18T15:56:41;-3.12;83.33
13713;DHT22;6928;50.546;7.120;2022-12-18T15:59:26;-3.14;83.03
13713;DHT22;6928;50.546;7.120;2022-12-18T16:01:54;-3.28;83.38
13713;DHT22;6928;50.546;7.120;2022-12-18T16:04:23;-3.25;83.50
13713;DHT22;6928;50.546;7.120;2022-12-18T16:06:50;-3.22;83.69
13713;DHT22;6928;50.546;7.120;2022-12-18T16:09:18;-3.25;83.61
13713;DHT22;6928;50.546;7.120;2022-12-18T16:11:45;-3.21;83.87
13713;DHT22;6928;50.546;7.120;2022-12-18T16:14:17;-3.29;84.08
13713;DHT22;6928;50.546;7.120;2022-12-18T16:16:46;-3.27;84.24
13713;DHT22;6928;50.546;7.120;2022-12-18T16:19:13;-3.31;84.08
13713;DHT22;6928;50.546;7.120;2022-12-18T16:21:41;-3.24;83.82